Terminal Aerodrome Forecast
Issued by NWS Grand Forks, ND

Home | Current Version | Previous Version | Text Only | Print | Product List | Glossary On
Versions: 1 2 3 4 5 6 7 8 9 10 11 12 13 14 15 16 17 18
000
FTUS43 KFGF 070500
TAFFAR
TAF
KFAR 070521Z 0706/0806 15013KT P6SM OVC050
     FM070800 15009KT P6SM -SHRA OVC030
      TEMPO 0708/0712 4SM -SHRA BKN015
     FM071600 31018G28KT P6SM -SHRA BKN015=

USA.gov is the U.S. government's official web portal to all federal, state and local government web resources and services.